Bookmark and Share
Track history (hours):
 

Callsign AMOUK01 (name unknown)

Last reported at 2012-Jan-31 21:00 UTC. Time now 2014-Apr-18 16:18 UTC.
Position S 72°18' W 103°18'.
Warning: this ship's position is years out of date!

Air temperature -3.1 ° C
Dewpoint -5.0 ° C

NotesDate/timePositionNaut miles runAvg speedWind from/ knotsBaromVisibWave heightAir tempDewpointWater temp
2012-Jan-31 21:00S 72°18' W 103°18'0 0.0 -3.1-5.0
2012-Jan-31 20:00S 72°18' W 103°18'0 0.0 -4.0-6.1
2012-Jan-31 16:00S 72°18' W 103°18'1312.5 -4.1-5.4
2012-Jan-31 15:00S 72°06' W 103°06'1312.6 -3.3-4.1
2012-Jan-31 14:00S 72°00' W 102°30'0 0.0 -2.7-3.4
2012-Jan-31 12:00S 72°00' W 102°30'0 0.0 -3.3-3.9
2012-Jan-31 11:00S 72°00' W 102°30'0 0.0 -3.4-4.0
2012-Jan-31 10:00S 72°00' W 102°30'0 0.0 -3.4-4.1
2012-Jan-31 08:00S 72°00' W 102°30'6 2.8 -2.8-3.8
2012-Jan-31 06:00S 72°00' W 102°48'1111.0 -2.5-3.6
2012-Jan-31 05:00S 72°06' W 103°18'6 6.0 -2.4-3.6
2012-Jan-31 04:00S 72°12' W 103°18'19 1.9 -2.3-3.6
2012-Jan-30 18:00S 71°54' W 103°36'0 0.0 -1.7-4.5
2012-Jan-30 16:00S 71°54' W 103°36'2 1.9 -4.0-6.5
2012-Jan-30 15:00S 71°54' W 103°42'0 0.0 -4.5-7.4
2012-Jan-30 14:00S 71°54' W 103°42'11 3.7 -4.5-6.8
2012-Jan-30 11:00S 71°48' W 104°12'10 4.8 -4.2-6.7
2012-Jan-30 09:00S 71°42' W 104°36'1312.6 -3.4-6.0
2012-Jan-30 08:00S 71°30' W 104°48'0 0.0 -3.3-5.1
2012-Jan-30 07:00S 71°30' W 104°48'0 0.0 -3.4-5.1
2012-Jan-30 06:00S 71°30' W 104°48'0 0.0 -3.0-4.6
2012-Jan-30 05:00S 71°30' W 104°48'57 5.7 -2.6-4.6
2012-Jan-29 19:00S 70°36' W 105°48'1010.0 987.1 -1.6
2012-Jan-29 18:00S 70°30' W 105°24'2010.0 986.7 -1.6
2012-Jan-29 16:00S 70°18' W 104°36'15 7.7 986.5 -1.6
2012-Jan-29 14:00S 70°12' W 103°54'1211.8 986.0 -1.1
2012-Jan-29 13:00S 70°06' W 103°24'1010.2 985.9 -1.5
2012-Jan-29 12:00S 70°00' W 103°00'7811.2 986.1
2012-Jan-29 05:00S 69°36' W 099°24'2311.5 988.4 -1.2
2012-Jan-29 03:00S 69°36' W 098°18'5212.9 990.9 -1.7
2012-Jan-28 23:00S 69°18' W 096°00'10112.6 992.3 -4.7
2012-Jan-28 15:00S 68°48' W 091°30'1212.4 987.4 -1.8-6.1
2012-Jan-28 14:00S 68°42' W 091°00'1414.4 986.8 -2.8-6.7
2012-Jan-28 13:00S 68°36' W 090°24'3712.4 985.9 -1.9-6.3
2012-Jan-28 10:00S 68°24' W 088°48'26612.7 985.0 -2.6-5.1
2012-Jan-27 13:00S 68°00' W 076°54'3712.2 982.6 -1.5
2012-Jan-27 10:00S 67°54' W 075°18'165 6.6 983.4 -3.3
2012-Jan-26 09:00S 67°36' W 068°06'6 3.2 980.5 -5.1
2012-Jan-26 07:00S 67°42' W 068°12'2121.3 979.9 -3.4
2012-Jan-26 06:00S 67°48' W 069°06'1919.1 979.3 -1.0-2.4
2012-Jan-26 05:00S 67°42' W 069°54'0 0.0 979.2 -2.5
2012-Jan-26 04:00S 67°42' W 069°54'1212.0 978.8 -2.5
2012-Jan-26 03:00S 67°30' W 069°54'4812.0 978.2 -2.4
2012-Jan-25 23:00S 66°48' W 068°54'9 9.3 976.9 -1.1
2012-Jan-25 22:00S 66°42' W 068°36'2914.6 978.3
2012-Jan-25 20:00S 66°18' W 067°54'2512.4 979.3
2012-Jan-25 18:00S 66°00' W 067°12'1414.1 980.1
2012-Jan-25 17:00S 65°48' W 066°54'23311.1 980.9
2012-Jan-24 20:00S 63°00' W 060°42'7 6.6 991.6 2.2-1.0
2012-Jan-24 19:00S 62°54' W 060°36'6 3.0 991.9 2.8-1.6
2012-Jan-24 17:00S 63°00' W 060°36'0 0.0 2.3-3.0
2012-Jan-24 16:00S 63°00' W 060°36'5 2.7 1.7-2.3
2012-Jan-24 14:00S 63°00' W 060°24'1010.1 -3.5
2012-Jan-24 13:00S 62°54' W 060°06'1212.5 -3.5
2012-Jan-24 12:00S 62°48' W 059°42'1010.2 1.2-2.4
2012-Jan-24 11:00S 62°42' W 059°24'1312.6 1.3-2.3
2012-Jan-24 10:00S 62°36' W 059°00'1010.2 1.1-2.7
2012-Jan-24 09:00S 62°30' W 058°42'1312.6 1.0-2.6
2012-Jan-24 08:00S 62°24' W 058°18'76 9.4 -2.7
2012-Jan-24 00:00S 61°18' W 057°00'6 6.0 985.9 1.1-2.5
2012-Jan-23 23:00S 61°12' W 057°00'1212.0 986.5
2012-Jan-23 22:00S 61°00' W 057°00'1212.3 988.0 2.0-1.6
2012-Jan-23 21:00S 60°48' W 057°06'1212.0 988.3 2.1-1.3
2012-Jan-23 20:00S 60°36' W 057°06'6 6.0 988.5 2.3-1.2
2012-Jan-23 19:00S 60°30' W 057°06'2412.0 988.9 1.8
2012-Jan-23 17:00S 60°06' W 057°06'1212.0 989.6 1.9-1.5
2012-Jan-23 16:00S 59°54' W 057°06'1212.0 989.6 1.9-1.1
2012-Jan-23 15:00S 59°42' W 057°06'6 6.0 989.3 1.8-1.8
2012-Jan-23 14:00S 59°36' W 057°06'1212.4 988.6 1.8-1.4
2012-Jan-23 13:00S 59°24' W 057°12'1212.0 988.0 1.8-2.1
2012-Jan-23 12:00S 59°12' W 057°12'1212.0 987.7 2.1
2012-Jan-23 11:00S 59°00' W 057°12'1212.0 988.2 2.1-1.0
2012-Jan-23 10:00S 58°48' W 057°12'1212.0 988.2 1.8
2012-Jan-23 09:00S 58°36' W 057°12'6 6.0 987.9 2.0
2012-Jan-23 08:00S 58°30' W 057°12'1212.0 987.2 1.5
2012-Jan-23 07:00S 58°18' W 057°12'1212.0 987.4 1.4
2012-Jan-23 06:00S 58°06' W 057°12'1212.0 987.5 1.4 1.1
2012-Jan-23 05:00S 57°54' W 057°12'1212.4 987.7 1.4 1.2
2012-Jan-23 04:00S 57°42' W 057°18'1212.0 987.9 1.3 1.0
2012-Jan-23 03:00S 57°30' W 057°18'1212.0 988.1 3.3 3.0
2012-Jan-23 02:00S 57°18' W 057°18'1212.0 989.1 4.0 3.7
2012-Jan-23 01:00S 57°06' W 057°18'1212.0 989.9 3.8 3.5
2012-Jan-23 00:00S 56°54' W 057°18'1212.0 030 / 8990.7 3.7 3.4 4.0
2012-Jan-22 23:00S 56°42' W 057°18'2412.0 991.5 4.4 4.1
2012-Jan-22 21:00S 56°18' W 057°18'1212.0 993.6 5.8 5.3
2012-Jan-22 20:00S 56°06' W 057°18'2412.1 994.7 5.7 5.1
2012-Jan-22 18:00S 55°42' W 057°24'1212.0 996.4 6.4 5.3
2012-Jan-22 17:00S 55°30' W 057°24'1212.0 997.2 7.1 5.4
2012-Jan-22 16:00S 55°18' W 057°24'1212.0 997.8 7.2 5.5
2012-Jan-22 15:00S 55°06' W 057°24'1212.0 998.4 7.4 5.8
2012-Jan-22 14:00S 54°54' W 057°24'4210.5 998.6 7.3 6.3
2012-Jan-22 10:00S 54°12' W 057°30'1212.0 1000.4 8.2 7.5
2012-Jan-22 09:00S 54°00' W 057°30'1212.0 1001.6 8.2 7.4
2012-Jan-22 08:00S 53°48' W 057°30'1212.0 1002.5 8.7 7.8
2012-Jan-22 07:00S 53°36' W 057°30'1212.0 1003.8 8.6 7.6
2012-Jan-22 06:00S 53°24' W 057°30'1212.0 1005.9 8.4 7.2
2012-Jan-22 05:00S 53°12' W 057°30'1212.0 1007.8 8.5 7.2
2012-Jan-22 04:00S 53°00' W 057°30'3010.0 1009.1 8.9 7.3
2012-Jan-22 01:00S 52°30' W 057°30'1312.5 1010.8 9.9 7.5
2012-Jan-22 00:00S 52°18' W 057°36'1212.0 1010.9 10.2 7.7
2012-Jan-21 23:00S 52°06' W 057°36'1212.0 1011.8 11.1 8.1
2012-Jan-21 22:00S 51°54' W 057°36'1212.0 1011.3 13.3 8.4
2012-Jan-21 21:00S 51°42' W 057°36'   1011.9 14.5 7.4

Dump ship's entire track history

sailing weather and tide predictions

Ship Status Report: callsign AMOUK01